sensor_id;sensor_type;location;lat;lon;timestamp;P1;durP1;ratioP1;P2;durP2;ratioP2
8538;SDS011;4307;53.868;11.680;2023-04-25T00:02:23;11.03;;;6.67;;
8538;SDS011;4307;53.868;11.680;2023-04-25T00:04:50;13.60;;;6.90;;
8538;SDS011;4307;53.868;11.680;2023-04-25T00:07:18;8.60;;;6.27;;
8538;SDS011;4307;53.868;11.680;2023-04-25T00:09:45;10.97;;;6.50;;
8538;SDS011;4307;53.868;11.680;2023-04-25T00:12:12;9.13;;;5.97;;
8538;SDS011;4307;53.868;11.680;2023-04-25T00:14:38;9.93;;;6.73;;
8538;SDS011;4307;53.868;11.680;2023-04-25T00:17:05;7.40;;;6.40;;
8538;SDS011;4307;53.868;11.680;2023-04-25T00:19:32;10.40;;;7.03;;
8538;SDS011;4307;53.868;11.680;2023-04-25T00:21:59;12.10;;;6.40;;
8538;SDS011;4307;53.868;11.680;2023-04-25T00:24:27;7.63;;;5.90;;
8538;SDS011;4307;53.868;11.680;2023-04-25T00:26:54;9.60;;;6.30;;
8538;SDS011;4307;53.868;11.680;2023-04-25T00:29:21;9.77;;;5.80;;
8538;SDS011;4307;53.868;11.680;2023-04-25T00:31:48;9.50;;;6.03;;
8538;SDS011;4307;53.868;11.680;2023-04-25T00:34:14;8.27;;;6.10;;
8538;SDS011;4307;53.868;11.680;2023-04-25T00:36:41;8.83;;;5.80;;
8538;SDS011;4307;53.868;11.680;2023-04-25T00:39:08;7.67;;;6.10;;
8538;SDS011;4307;53.868;11.680;2023-04-25T00:41:36;5.80;;;5.20;;
8538;SDS011;4307;53.868;11.680;2023-04-25T00:44:03;7.10;;;5.73;;
8538;SDS011;4307;53.868;11.680;2023-04-25T00:46:31;7.90;;;6.17;;
8538;SDS011;4307;53.868;11.680;2023-04-25T00:48:58;6.53;;;5.67;;
8538;SDS011;4307;53.868;11.680;2023-04-25T00:51:25;7.27;;;5.40;;
8538;SDS011;4307;53.868;11.680;2023-04-25T00:53:52;11.43;;;5.70;;
8538;SDS011;4307;53.868;11.680;2023-04-25T00:56:19;9.17;;;5.13;;
8538;SDS011;4307;53.868;11.680;2023-04-25T00:58:48;7.30;;;5.13;;
8538;SDS011;4307;53.868;11.680;2023-04-25T01:01:19;8.93;;;5.00;;
8538;SDS011;4307;53.868;11.680;2023-04-25T01:03:45;6.87;;;5.20;;
8538;SDS011;4307;53.868;11.680;2023-04-25T01:06:14;9.60;;;4.93;;
8538;SDS011;4307;53.868;11.680;2023-04-25T01:08:42;5.80;;;5.13;;
8538;SDS011;4307;53.868;11.680;2023-04-25T01:11:09;7.47;;;5.80;;
8538;SDS011;4307;53.868;11.680;2023-04-25T01:13:35;7.27;;;5.17;;
8538;SDS011;4307;53.868;11.680;2023-04-25T01:16:04;7.10;;;5.20;;
8538;SDS011;4307;53.868;11.680;2023-04-25T01:18:31;7.43;;;5.80;;
8538;SDS011;4307;53.868;11.680;2023-04-25T01:21:02;6.03;;;5.40;;
8538;SDS011;4307;53.868;11.680;2023-04-25T01:23:32;7.97;;;6.07;;
8538;SDS011;4307;53.868;11.680;2023-04-25T01:25:59;8.13;;;5.73;;
8538;SDS011;4307;53.868;11.680;2023-04-25T01:28:27;11.60;;;6.47;;
8538;SDS011;4307;53.868;11.680;2023-04-25T01:30:54;8.40;;;5.17;;
8538;SDS011;4307;53.868;11.680;2023-04-25T01:33:22;8.00;;;5.83;;
8538;SDS011;4307;53.868;11.680;2023-04-25T01:35:49;10.87;;;5.57;;
8538;SDS011;4307;53.868;11.680;2023-04-25T01:38:17;7.83;;;5.37;;
8538;SDS011;4307;53.868;11.680;2023-04-25T01:40:44;7.53;;;5.50;;
8538;SDS011;4307;53.868;11.680;2023-04-25T01:43:12;7.60;;;6.10;;
8538;SDS011;4307;53.868;11.680;2023-04-25T01:45:39;6.90;;;5.43;;
8538;SDS011;4307;53.868;11.680;2023-04-25T01:48:06;6.70;;;5.50;;
8538;SDS011;4307;53.868;11.680;2023-04-25T01:50:33;9.23;;;5.83;;
8538;SDS011;4307;53.868;11.680;2023-04-25T01:53:00;7.97;;;5.60;;
8538;SDS011;4307;53.868;11.680;2023-04-25T01:55:28;7.63;;;5.60;;
8538;SDS011;4307;53.868;11.680;2023-04-25T01:57:55;11.63;;;6.00;;
8538;SDS011;4307;53.868;11.680;2023-04-25T02:00:22;10.43;;;5.67;;
8538;SDS011;4307;53.868;11.680;2023-04-25T02:02:49;10.17;;;5.40;;
8538;SDS011;4307;53.868;11.680;2023-04-25T02:05:18;11.93;;;5.23;;
8538;SDS011;4307;53.868;11.680;2023-04-25T02:07:45;6.80;;;5.00;;
8538;SDS011;4307;53.868;11.680;2023-04-25T02:10:12;10.87;;;5.50;;
8538;SDS011;4307;53.868;11.680;2023-04-25T02:12:40;8.27;;;4.63;;
8538;SDS011;4307;53.868;11.680;2023-04-25T02:15:07;7.60;;;3.83;;
8538;SDS011;4307;53.868;11.680;2023-04-25T02:17:34;12.17;;;4.23;;
8538;SDS011;4307;53.868;11.680;2023-04-25T02:20:00;7.37;;;3.40;;
8538;SDS011;4307;53.868;11.680;2023-04-25T02:22:28;10.97;;;3.93;;
8538;SDS011;4307;53.868;11.680;2023-04-25T02:24:55;11.00;;;3.23;;
8538;SDS011;4307;53.868;11.680;2023-04-25T02:27:22;7.80;;;3.13;;
8538;SDS011;4307;53.868;11.680;2023-04-25T02:29:50;9.30;;;3.23;;
8538;SDS011;4307;53.868;11.680;2023-04-25T02:32:17;7.60;;;2.90;;
8538;SDS011;4307;53.868;11.680;2023-04-25T02:34:44;9.57;;;3.00;;
8538;SDS011;4307;53.868;11.680;2023-04-25T02:37:10;9.30;;;3.43;;
8538;SDS011;4307;53.868;11.680;2023-04-25T02:39:38;7.77;;;3.03;;
8538;SDS011;4307;53.868;11.680;2023-04-25T02:42:05;10.70;;;3.20;;
8538;SDS011;4307;53.868;11.680;2023-04-25T02:44:31;8.90;;;3.30;;
8538;SDS011;4307;53.868;11.680;2023-04-25T02:46:59;7.93;;;3.20;;
8538;SDS011;4307;53.868;11.680;2023-04-25T02:49:26;9.57;;;3.30;;
8538;SDS011;4307;53.868;11.680;2023-04-25T02:51:53;10.33;;;3.47;;
8538;SDS011;4307;53.868;11.680;2023-04-25T02:54:19;11.80;;;3.60;;
8538;SDS011;4307;53.868;11.680;2023-04-25T02:56:46;10.10;;;3.47;;
8538;SDS011;4307;53.868;11.680;2023-04-25T02:59:12;8.80;;;3.27;;
8538;SDS011;4307;53.868;11.680;2023-04-25T03:01:39;10.33;;;3.00;;
8538;SDS011;4307;53.868;11.680;2023-04-25T03:04:07;9.43;;;3.67;;
8538;SDS011;4307;53.868;11.680;2023-04-25T03:06:34;15.07;;;3.17;;
8538;SDS011;4307;53.868;11.680;2023-04-25T03:09:00;8.57;;;3.27;;
8538;SDS011;4307;53.868;11.680;2023-04-25T03:11:27;12.43;;;3.47;;
8538;SDS011;4307;53.868;11.680;2023-04-25T03:13:54;12.13;;;4.70;;
8538;SDS011;4307;53.868;11.680;2023-04-25T03:16:20;12.00;;;3.60;;
8538;SDS011;4307;53.868;11.680;2023-04-25T03:18:47;13.97;;;3.63;;
8538;SDS011;4307;53.868;11.680;2023-04-25T03:21:16;15.23;;;3.53;;
8538;SDS011;4307;53.868;11.680;2023-04-25T03:23:43;11.20;;;3.13;;
8538;SDS011;4307;53.868;11.680;2023-04-25T03:26:10;10.93;;;4.03;;
8538;SDS011;4307;53.868;11.680;2023-04-25T03:28:37;9.70;;;3.50;;
8538;SDS011;4307;53.868;11.680;2023-04-25T03:31:04;7.80;;;3.63;;
8538;SDS011;4307;53.868;11.680;2023-04-25T03:33:31;7.57;;;3.17;;
8538;SDS011;4307;53.868;11.680;2023-04-25T03:35:58;13.10;;;3.37;;
8538;SDS011;4307;53.868;11.680;2023-04-25T03:38:26;15.67;;;3.97;;
8538;SDS011;4307;53.868;11.680;2023-04-25T03:40:53;13.40;;;3.60;;
8538;SDS011;4307;53.868;11.680;2023-04-25T03:43:21;9.67;;;3.30;;
8538;SDS011;4307;53.868;11.680;2023-04-25T03:45:47;13.10;;;3.10;;
8538;SDS011;4307;53.868;11.680;2023-04-25T03:48:14;18.40;;;3.93;;
8538;SDS011;4307;53.868;11.680;2023-04-25T03:50:41;14.03;;;3.67;;
8538;SDS011;4307;53.868;11.680;2023-04-25T03:53:07;10.83;;;3.57;;
8538;SDS011;4307;53.868;11.680;2023-04-25T03:55:35;11.53;;;3.80;;
8538;SDS011;4307;53.868;11.680;2023-04-25T03:58:02;9.73;;;3.57;;
8538;SDS011;4307;53.868;11.680;2023-04-25T04:00:29;8.13;;;3.20;;
8538;SDS011;4307;53.868;11.680;2023-04-25T04:02:56;15.80;;;3.70;;
8538;SDS011;4307;53.868;11.680;2023-04-25T04:05:23;15.37;;;3.50;;
8538;SDS011;4307;53.868;11.680;2023-04-25T04:07:50;11.23;;;3.70;;
8538;SDS011;4307;53.868;11.680;2023-04-25T04:10:16;13.20;;;4.03;;
8538;SDS011;4307;53.868;11.680;2023-04-25T04:12:44;13.90;;;3.70;;
8538;SDS011;4307;53.868;11.680;2023-04-25T04:15:11;14.03;;;3.73;;
8538;SDS011;4307;53.868;11.680;2023-04-25T04:17:38;7.63;;;2.80;;
8538;SDS011;4307;53.868;11.680;2023-04-25T04:20:05;8.50;;;4.00;;
8538;SDS011;4307;53.868;11.680;2023-04-25T04:22:33;16.97;;;3.77;;
8538;SDS011;4307;53.868;11.680;2023-04-25T04:25:01;15.30;;;3.77;;
8538;SDS011;4307;53.868;11.680;2023-04-25T04:27:29;14.33;;;3.63;;
8538;SDS011;4307;53.868;11.680;2023-04-25T04:29:57;10.97;;;3.00;;
8538;SDS011;4307;53.868;11.680;2023-04-25T04:32:24;16.93;;;3.30;;
8538;SDS011;4307;53.868;11.680;2023-04-25T04:34:53;10.43;;;2.90;;
8538;SDS011;4307;53.868;11.680;2023-04-25T04:37:20;19.97;;;3.70;;
8538;SDS011;4307;53.868;11.680;2023-04-25T04:39:47;14.07;;;4.13;;
8538;SDS011;4307;53.868;11.680;2023-04-25T04:42:15;10.20;;;3.47;;
8538;SDS011;4307;53.868;11.680;2023-04-25T04:44:42;15.03;;;4.60;;
8538;SDS011;4307;53.868;11.680;2023-04-25T04:47:10;16.73;;;3.70;;
8538;SDS011;4307;53.868;11.680;2023-04-25T04:49:39;16.33;;;4.23;;
8538;SDS011;4307;53.868;11.680;2023-04-25T04:52:05;14.17;;;3.80;;
8538;SDS011;4307;53.868;11.680;2023-04-25T04:54:32;14.47;;;3.90;;
8538;SDS011;4307;53.868;11.680;2023-04-25T04:57:00;13.53;;;3.40;;
8538;SDS011;4307;53.868;11.680;2023-04-25T04:59:27;11.23;;;3.27;;
8538;SDS011;4307;53.868;11.680;2023-04-25T05:01:53;10.10;;;3.50;;
8538;SDS011;4307;53.868;11.680;2023-04-25T05:04:21;18.70;;;3.90;;
8538;SDS011;4307;53.868;11.680;2023-04-25T05:06:48;9.07;;;3.20;;
8538;SDS011;4307;53.868;11.680;2023-04-25T05:09:14;12.30;;;3.93;;
8538;SDS011;4307;53.868;11.680;2023-04-25T05:11:41;10.77;;;3.20;;
8538;SDS011;4307;53.868;11.680;2023-04-25T05:14:08;9.77;;;3.70;;
8538;SDS011;4307;53.868;11.680;2023-04-25T05:16:35;11.63;;;3.60;;
8538;SDS011;4307;53.868;11.680;2023-04-25T05:19:01;15.70;;;4.10;;
8538;SDS011;4307;53.868;11.680;2023-04-25T05:21:29;13.93;;;3.77;;
8538;SDS011;4307;53.868;11.680;2023-04-25T05:23:56;15.40;;;3.93;;
8538;SDS011;4307;53.868;11.680;2023-04-25T05:26:23;11.73;;;3.47;;
8538;SDS011;4307;53.868;11.680;2023-04-25T05:28:49;11.20;;;3.93;;
8538;SDS011;4307;53.868;11.680;2023-04-25T05:31:16;14.67;;;4.00;;
8538;SDS011;4307;53.868;11.680;2023-04-25T05:33:43;10.50;;;3.30;;
8538;SDS011;4307;53.868;11.680;2023-04-25T05:36:10;15.87;;;4.23;;
8538;SDS011;4307;53.868;11.680;2023-04-25T05:38:38;16.83;;;3.67;;
8538;SDS011;4307;53.868;11.680;2023-04-25T05:41:04;13.27;;;3.47;;
8538;SDS011;4307;53.868;11.680;2023-04-25T05:43:32;9.30;;;3.33;;
8538;SDS011;4307;53.868;11.680;2023-04-25T05:45:58;10.37;;;3.77;;
8538;SDS011;4307;53.868;11.680;2023-04-25T05:48:25;17.40;;;4.60;;
8538;SDS011;4307;53.868;11.680;2023-04-25T05:50:52;12.70;;;3.30;;
8538;SDS011;4307;53.868;11.680;2023-04-25T05:53:18;10.37;;;3.00;;
8538;SDS011;4307;53.868;11.680;2023-04-25T05:55:48;9.77;;;3.27;;
8538;SDS011;4307;53.868;11.680;2023-04-25T05:58:14;10.27;;;3.63;;
8538;SDS011;4307;53.868;11.680;2023-04-25T06:00:41;14.53;;;3.37;;
8538;SDS011;4307;53.868;11.680;2023-04-25T06:03:08;16.40;;;3.50;;
8538;SDS011;4307;53.868;11.680;2023-04-25T06:05:35;7.53;;;3.20;;
8538;SDS011;4307;53.868;11.680;2023-04-25T06:08:02;9.97;;;3.13;;
8538;SDS011;4307;53.868;11.680;2023-04-25T06:10:29;12.10;;;3.10;;
8538;SDS011;4307;53.868;11.680;2023-04-25T06:12:57;13.43;;;3.20;;
8538;SDS011;4307;53.868;11.680;2023-04-25T06:15:24;8.70;;;2.90;;
8538;SDS011;4307;53.868;11.680;2023-04-25T06:17:51;6.70;;;3.50;;
8538;SDS011;4307;53.868;11.680;2023-04-25T06:20:17;8.40;;;2.80;;
8538;SDS011;4307;53.868;11.680;2023-04-25T06:22:47;9.93;;;3.10;;
8538;SDS011;4307;53.868;11.680;2023-04-25T06:25:14;10.23;;;3.13;;
8538;SDS011;4307;53.868;11.680;2023-04-25T06:27:41;10.23;;;3.10;;
8538;SDS011;4307;53.868;11.680;2023-04-25T06:30:10;8.47;;;3.00;;
8538;SDS011;4307;53.868;11.680;2023-04-25T06:32:37;11.33;;;3.20;;
8538;SDS011;4307;53.868;11.680;2023-04-25T06:35:04;8.03;;;3.10;;
8538;SDS011;4307;53.868;11.680;2023-04-25T06:37:31;6.90;;;3.10;;
8538;SDS011;4307;53.868;11.680;2023-04-25T06:39:58;10.50;;;2.90;;
8538;SDS011;4307;53.868;11.680;2023-04-25T06:42:25;8.47;;;3.20;;
8538;SDS011;4307;53.868;11.680;2023-04-25T06:44:51;10.50;;;3.03;;
8538;SDS011;4307;53.868;11.680;2023-04-25T06:47:19;13.67;;;3.33;;
8538;SDS011;4307;53.868;11.680;2023-04-25T06:49:46;12.27;;;3.77;;
8538;SDS011;4307;53.868;11.680;2023-04-25T06:52:12;11.63;;;3.10;;
8538;SDS011;4307;53.868;11.680;2023-04-25T06:54:39;8.10;;;3.10;;
8538;SDS011;4307;53.868;11.680;2023-04-25T06:57:06;15.87;;;3.53;;
8538;SDS011;4307;53.868;11.680;2023-04-25T06:59:33;9.13;;;3.13;;
8538;SDS011;4307;53.868;11.680;2023-04-25T07:01:59;12.20;;;3.70;;
8538;SDS011;4307;53.868;11.680;2023-04-25T07:04:27;18.50;;;3.30;;
8538;SDS011;4307;53.868;11.680;2023-04-25T07:06:54;10.90;;;3.33;;
8538;SDS011;4307;53.868;11.680;2023-04-25T07:09:21;11.73;;;2.87;;
8538;SDS011;4307;53.868;11.680;2023-04-25T07:11:47;10.90;;;3.00;;
8538;SDS011;4307;53.868;11.680;2023-04-25T07:14:14;12.43;;;3.60;;
8538;SDS011;4307;53.868;11.680;2023-04-25T07:16:41;7.53;;;2.93;;
8538;SDS011;4307;53.868;11.680;2023-04-25T07:19:07;14.83;;;3.40;;
8538;SDS011;4307;53.868;11.680;2023-04-25T07:21:35;9.33;;;3.20;;
8538;SDS011;4307;53.868;11.680;2023-04-25T07:24:02;12.97;;;3.37;;
8538;SDS011;4307;53.868;11.680;2023-04-25T07:26:29;6.57;;;2.53;;
8538;SDS011;4307;53.868;11.680;2023-04-25T07:28:56;9.13;;;2.90;;
8538;SDS011;4307;53.868;11.680;2023-04-25T07:31:23;11.23;;;2.97;;
8538;SDS011;4307;53.868;11.680;2023-04-25T07:33:50;7.57;;;2.80;;
8538;SDS011;4307;53.868;11.680;2023-04-25T07:36:16;7.37;;;2.90;;
8538;SDS011;4307;53.868;11.680;2023-04-25T07:38:44;12.80;;;3.23;;
8538;SDS011;4307;53.868;11.680;2023-04-25T07:41:11;12.13;;;2.97;;
8538;SDS011;4307;53.868;11.680;2023-04-25T07:43:37;7.70;;;3.23;;
8538;SDS011;4307;53.868;11.680;2023-04-25T07:46:04;8.90;;;2.90;;
8538;SDS011;4307;53.868;11.680;2023-04-25T07:48:31;7.60;;;2.70;;
8538;SDS011;4307;53.868;11.680;2023-04-25T07:50:58;11.10;;;2.93;;
8538;SDS011;4307;53.868;11.680;2023-04-25T07:53:24;10.73;;;2.80;;
8538;SDS011;4307;53.868;11.680;2023-04-25T07:55:52;17.53;;;3.43;;
8538;SDS011;4307;53.868;11.680;2023-04-25T07:58:19;11.60;;;3.40;;
8538;SDS011;4307;53.868;11.680;2023-04-25T08:00:46;10.63;;;3.70;;
8538;SDS011;4307;53.868;11.680;2023-04-25T08:03:13;10.87;;;3.73;;
8538;SDS011;4307;53.868;11.680;2023-04-25T08:05:40;9.67;;;3.07;;
8538;SDS011;4307;53.868;11.680;2023-04-25T08:08:07;7.37;;;2.90;;
8538;SDS011;4307;53.868;11.680;2023-04-25T08:10:33;7.73;;;3.07;;
8538;SDS011;4307;53.868;11.680;2023-04-25T08:13:01;11.07;;;2.70;;
8538;SDS011;4307;53.868;11.680;2023-04-25T08:15:28;12.37;;;2.53;;
8538;SDS011;4307;53.868;11.680;2023-04-25T08:17:55;16.80;;;3.37;;
8538;SDS011;4307;53.868;11.680;2023-04-25T08:20:21;9.63;;;3.50;;
8538;SDS011;4307;53.868;11.680;2023-04-25T08:22:48;7.37;;;2.53;;
8538;SDS011;4307;53.868;11.680;2023-04-25T08:25:15;11.20;;;2.70;;
8538;SDS011;4307;53.868;11.680;2023-04-25T08:27:41;10.13;;;3.17;;
8538;SDS011;4307;53.868;11.680;2023-04-25T08:30:10;7.67;;;2.97;;
8538;SDS011;4307;53.868;11.680;2023-04-25T08:32:37;10.17;;;3.47;;
8538;SDS011;4307;53.868;11.680;2023-04-25T08:35:04;9.37;;;2.80;;
8538;SDS011;4307;53.868;11.680;2023-04-25T08:37:31;7.40;;;3.10;;
8538;SDS011;4307;53.868;11.680;2023-04-25T08:39:58;12.87;;;3.40;;
8538;SDS011;4307;53.868;11.680;2023-04-25T08:42:25;6.33;;;3.00;;
8538;SDS011;4307;53.868;11.680;2023-04-25T08:44:53;9.87;;;3.13;;
8538;SDS011;4307;53.868;11.680;2023-04-25T08:47:22;9.33;;;3.00;;
8538;SDS011;4307;53.868;11.680;2023-04-25T08:49:50;5.50;;;1.97;;
8538;SDS011;4307;53.868;11.680;2023-04-25T08:52:21;10.97;;;2.93;;
8538;SDS011;4307;53.868;11.680;2023-04-25T08:54:49;9.67;;;3.10;;
8538;SDS011;4307;53.868;11.680;2023-04-25T08:57:17;13.47;;;2.77;;
8538;SDS011;4307;53.868;11.680;2023-04-25T08:59:45;9.40;;;2.50;;
8538;SDS011;4307;53.868;11.680;2023-04-25T09:02:13;7.80;;;2.30;;
8538;SDS011;4307;53.868;11.680;2023-04-25T09:04:43;9.00;;;2.30;;
8538;SDS011;4307;53.868;11.680;2023-04-25T09:07:10;8.80;;;2.50;;
8538;SDS011;4307;53.868;11.680;2023-04-25T09:09:37;6.80;;;2.53;;
8538;SDS011;4307;53.868;11.680;2023-04-25T09:12:04;7.20;;;2.57;;
8538;SDS011;4307;53.868;11.680;2023-04-25T09:14:31;9.00;;;3.10;;
8538;SDS011;4307;53.868;11.680;2023-04-25T09:17:01;16.33;;;2.37;;
8538;SDS011;4307;53.868;11.680;2023-04-25T09:19:30;12.33;;;3.00;;
8538;SDS011;4307;53.868;11.680;2023-04-25T09:22:00;12.00;;;2.50;;
8538;SDS011;4307;53.868;11.680;2023-04-25T09:24:35;10.13;;;3.53;;
8538;SDS011;4307;53.868;11.680;2023-04-25T09:27:05;7.93;;;2.63;;
8538;SDS011;4307;53.868;11.680;2023-04-25T09:29:33;11.00;;;2.93;;
8538;SDS011;4307;53.868;11.680;2023-04-25T09:32:10;6.70;;;2.40;;
8538;SDS011;4307;53.868;11.680;2023-04-25T09:34:39;7.17;;;2.30;;
8538;SDS011;4307;53.868;11.680;2023-04-25T09:37:09;9.03;;;2.83;;
8538;SDS011;4307;53.868;11.680;2023-04-25T09:39:36;8.37;;;2.53;;
8538;SDS011;4307;53.868;11.680;2023-04-25T09:42:04;9.53;;;2.40;;
8538;SDS011;4307;53.868;11.680;2023-04-25T09:44:30;11.30;;;2.57;;
8538;SDS011;4307;53.868;11.680;2023-04-25T09:46:58;9.17;;;2.13;;
8538;SDS011;4307;53.868;11.680;2023-04-25T09:49:25;5.07;;;2.27;;
8538;SDS011;4307;53.868;11.680;2023-04-25T09:51:55;7.97;;;2.23;;
8538;SDS011;4307;53.868;11.680;2023-04-25T09:54:24;5.17;;;2.40;;
8538;SDS011;4307;53.868;11.680;2023-04-25T09:56:51;8.17;;;2.40;;
8538;SDS011;4307;53.868;11.680;2023-04-25T09:59:19;9.47;;;2.80;;
8538;SDS011;4307;53.868;11.680;2023-04-25T10:01:47;7.07;;;2.60;;
8538;SDS011;4307;53.868;11.680;2023-04-25T10:04:16;11.23;;;3.40;;
8538;SDS011;4307;53.868;11.680;2023-04-25T10:06:46;7.97;;;2.87;;
8538;SDS011;4307;53.868;11.680;2023-04-25T10:09:15;8.10;;;2.23;;
8538;SDS011;4307;53.868;11.680;2023-04-25T10:11:44;6.63;;;2.43;;
8538;SDS011;4307;53.868;11.680;2023-04-25T10:14:12;7.90;;;2.17;;
8538;SDS011;4307;53.868;11.680;2023-04-25T10:16:39;9.33;;;2.37;;
8538;SDS011;4307;53.868;11.680;2023-04-25T10:19:07;8.77;;;2.80;;
8538;SDS011;4307;53.868;11.680;2023-04-25T10:21:34;5.17;;;2.17;;
8538;SDS011;4307;53.868;11.680;2023-04-25T10:24:06;7.20;;;2.30;;
8538;SDS011;4307;53.868;11.680;2023-04-25T10:26:33;5.27;;;2.00;;
8538;SDS011;4307;53.868;11.680;2023-04-25T10:29:02;5.93;;;2.00;;
8538;SDS011;4307;53.868;11.680;2023-04-25T10:31:30;8.03;;;2.30;;
8538;SDS011;4307;53.868;11.680;2023-04-25T10:33:58;7.70;;;2.60;;
8538;SDS011;4307;53.868;11.680;2023-04-25T10:36:25;9.63;;;2.10;;
8538;SDS011;4307;53.868;11.680;2023-04-25T10:38:58;5.13;;;2.23;;
8538;SDS011;4307;53.868;11.680;2023-04-25T10:41:31;11.00;;;3.00;;
8538;SDS011;4307;53.868;11.680;2023-04-25T10:44:15;7.27;;;2.13;;
8538;SDS011;4307;53.868;11.680;2023-04-25T10:46:41;6.60;;;2.17;;
8538;SDS011;4307;53.868;11.680;2023-04-25T10:49:10;10.27;;;2.27;;
8538;SDS011;4307;53.868;11.680;2023-04-25T10:54:39;9.10;;;2.40;;
8538;SDS011;4307;53.868;11.680;2023-04-25T10:57:07;7.23;;;2.50;;
8538;SDS011;4307;53.868;11.680;2023-04-25T10:59:35;5.93;;;2.03;;
8538;SDS011;4307;53.868;11.680;2023-04-25T11:02:02;6.53;;;2.13;;
8538;SDS011;4307;53.868;11.680;2023-04-25T11:04:39;9.63;;;2.40;;
8538;SDS011;4307;53.868;11.680;2023-04-25T11:07:09;6.57;;;1.93;;
8538;SDS011;4307;53.868;11.680;2023-04-25T11:09:41;7.00;;;2.00;;
8538;SDS011;4307;53.868;11.680;2023-04-25T11:12:10;6.17;;;1.93;;
8538;SDS011;4307;53.868;11.680;2023-04-25T11:14:39;5.10;;;1.50;;
8538;SDS011;4307;53.868;11.680;2023-04-25T11:17:06;4.70;;;2.20;;
8538;SDS011;4307;53.868;11.680;2023-04-25T11:19:32;4.80;;;2.00;;
8538;SDS011;4307;53.868;11.680;2023-04-25T11:22:00;7.00;;;1.97;;
8538;SDS011;4307;53.868;11.680;2023-04-25T11:24:28;7.43;;;2.37;;
8538;SDS011;4307;53.868;11.680;2023-04-25T11:26:55;6.67;;;1.90;;
8538;SDS011;4307;53.868;11.680;2023-04-25T11:29:23;7.03;;;3.00;;
8538;SDS011;4307;53.868;11.680;2023-04-25T11:31:53;6.47;;;2.30;;
8538;SDS011;4307;53.868;11.680;2023-04-25T11:34:22;2.83;;;1.70;;
8538;SDS011;4307;53.868;11.680;2023-04-25T11:36:50;7.73;;;1.93;;
8538;SDS011;4307;53.868;11.680;2023-04-25T11:39:17;8.30;;;2.20;;
8538;SDS011;4307;53.868;11.680;2023-04-25T11:41:44;4.67;;;1.60;;
8538;SDS011;4307;53.868;11.680;2023-04-25T11:44:11;7.23;;;2.10;;
8538;SDS011;4307;53.868;11.680;2023-04-25T11:46:41;12.70;;;2.37;;
8538;SDS011;4307;53.868;11.680;2023-04-25T11:49:09;8.33;;;2.53;;
8538;SDS011;4307;53.868;11.680;2023-04-25T11:51:39;6.67;;;1.93;;
8538;SDS011;4307;53.868;11.680;2023-04-25T11:54:06;6.40;;;2.03;;
8538;SDS011;4307;53.868;11.680;2023-04-25T11:56:33;6.83;;;1.87;;
8538;SDS011;4307;53.868;11.680;2023-04-25T11:59:00;5.60;;;2.20;;
8538;SDS011;4307;53.868;11.680;2023-04-25T12:01:28;3.07;;;1.30;;
8538;SDS011;4307;53.868;11.680;2023-04-25T12:03:56;3.07;;;1.53;;
8538;SDS011;4307;53.868;11.680;2023-04-25T12:06:27;4.77;;;2.03;;
8538;SDS011;4307;53.868;11.680;2023-04-25T12:09:01;4.13;;;1.57;;
8538;SDS011;4307;53.868;11.680;2023-04-25T12:11:29;3.80;;;1.73;;
8538;SDS011;4307;53.868;11.680;2023-04-25T12:14:01;4.87;;;1.60;;
8538;SDS011;4307;53.868;11.680;2023-04-25T12:16:28;4.43;;;1.73;;
8538;SDS011;4307;53.868;11.680;2023-04-25T12:18:55;4.10;;;1.73;;
8538;SDS011;4307;53.868;11.680;2023-04-25T12:21:28;2.50;;;1.30;;
8538;SDS011;4307;53.868;11.680;2023-04-25T12:24:07;3.90;;;1.40;;
8538;SDS011;4307;53.868;11.680;2023-04-25T12:26:48;1.80;;;1.20;;
8538;SDS011;4307;53.868;11.680;2023-04-25T12:29:16;4.57;;;1.80;;
8538;SDS011;4307;53.868;11.680;2023-04-25T12:31:43;4.90;;;1.70;;
8538;SDS011;4307;53.868;11.680;2023-04-25T12:34:10;4.53;;;1.60;;
8538;SDS011;4307;53.868;11.680;2023-04-25T12:36:38;6.50;;;1.60;;
8538;SDS011;4307;53.868;11.680;2023-04-25T12:39:05;5.73;;;1.20;;
8538;SDS011;4307;53.868;11.680;2023-04-25T12:41:33;8.90;;;2.07;;
8538;SDS011;4307;53.868;11.680;2023-04-25T12:44:00;6.30;;;2.33;;
8538;SDS011;4307;53.868;11.680;2023-04-25T12:46:26;3.73;;;1.57;;
8538;SDS011;4307;53.868;11.680;2023-04-25T12:48:53;7.93;;;2.00;;
8538;SDS011;4307;53.868;11.680;2023-04-25T12:51:20;3.63;;;1.90;;
8538;SDS011;4307;53.868;11.680;2023-04-25T12:53:51;8.33;;;2.07;;
8538;SDS011;4307;53.868;11.680;2023-04-25T12:56:18;2.83;;;1.47;;
8538;SDS011;4307;53.868;11.680;2023-04-25T12:58:45;4.47;;;2.07;;
8538;SDS011;4307;53.868;11.680;2023-04-25T13:01:13;5.40;;;1.50;;
8538;SDS011;4307;53.868;11.680;2023-04-25T13:03:40;4.77;;;1.77;;
8538;SDS011;4307;53.868;11.680;2023-04-25T13:06:06;5.47;;;2.13;;
8538;SDS011;4307;53.868;11.680;2023-04-25T13:08:33;5.57;;;1.47;;
8538;SDS011;4307;53.868;11.680;2023-04-25T13:11:03;8.67;;;1.60;;
8538;SDS011;4307;53.868;11.680;2023-04-25T13:13:30;2.53;;;1.10;;
8538;SDS011;4307;53.868;11.680;2023-04-25T13:15:59;5.53;;;1.30;;
8538;SDS011;4307;53.868;11.680;2023-04-25T13:18:26;5.20;;;1.30;;
8538;SDS011;4307;53.868;11.680;2023-04-25T13:20:53;5.53;;;1.53;;
8538;SDS011;4307;53.868;11.680;2023-04-25T13:23:20;4.50;;;1.77;;
8538;SDS011;4307;53.868;11.680;2023-04-25T13:25:47;6.93;;;1.67;;
8538;SDS011;4307;53.868;11.680;2023-04-25T13:28:15;6.70;;;2.13;;
8538;SDS011;4307;53.868;11.680;2023-04-25T13:30:42;5.20;;;1.87;;
8538;SDS011;4307;53.868;11.680;2023-04-25T13:33:08;3.60;;;1.23;;
8538;SDS011;4307;53.868;11.680;2023-04-25T13:35:35;5.20;;;1.33;;
8538;SDS011;4307;53.868;11.680;2023-04-25T13:38:03;2.63;;;1.23;;
8538;SDS011;4307;53.868;11.680;2023-04-25T13:40:30;1.60;;;1.00;;
8538;SDS011;4307;53.868;11.680;2023-04-25T13:42:58;4.43;;;1.20;;
8538;SDS011;4307;53.868;11.680;2023-04-25T13:45:26;4.63;;;1.40;;
8538;SDS011;4307;53.868;11.680;2023-04-25T13:47:53;2.70;;;1.27;;
8538;SDS011;4307;53.868;11.680;2023-04-25T13:50:20;10.20;;;1.93;;
8538;SDS011;4307;53.868;11.680;2023-04-25T13:52:46;6.73;;;1.73;;
8538;SDS011;4307;53.868;11.680;2023-04-25T13:55:13;6.13;;;1.50;;
8538;SDS011;4307;53.868;11.680;2023-04-25T13:57:40;2.03;;;1.13;;
8538;SDS011;4307;53.868;11.680;2023-04-25T14:00:07;6.23;;;1.27;;
8538;SDS011;4307;53.868;11.680;2023-04-25T14:02:36;4.30;;;1.20;;
8538;SDS011;4307;53.868;11.680;2023-04-25T14:05:04;2.37;;;0.90;;
8538;SDS011;4307;53.868;11.680;2023-04-25T14:07:33;2.20;;;1.00;;
8538;SDS011;4307;53.868;11.680;2023-04-25T14:10:00;3.73;;;0.73;;
8538;SDS011;4307;53.868;11.680;2023-04-25T14:12:29;1.07;;;0.67;;
8538;SDS011;4307;53.868;11.680;2023-04-25T14:14:55;1.60;;;0.80;;
8538;SDS011;4307;53.868;11.680;2023-04-25T14:17:22;1.77;;;0.90;;
8538;SDS011;4307;53.868;11.680;2023-04-25T14:19:50;2.97;;;1.10;;
8538;SDS011;4307;53.868;11.680;2023-04-25T14:22:17;1.63;;;1.03;;
8538;SDS011;4307;53.868;11.680;2023-04-25T14:24:44;5.33;;;1.43;;
8538;SDS011;4307;53.868;11.680;2023-04-25T14:27:11;4.20;;;1.17;;
8538;SDS011;4307;53.868;11.680;2023-04-25T14:29:37;3.87;;;0.90;;
8538;SDS011;4307;53.868;11.680;2023-04-25T14:32:04;4.83;;;1.20;;
8538;SDS011;4307;53.868;11.680;2023-04-25T14:34:31;2.17;;;1.10;;
8538;SDS011;4307;53.868;11.680;2023-04-25T14:36:59;2.73;;;1.47;;
8538;SDS011;4307;53.868;11.680;2023-04-25T14:39:26;3.83;;;1.30;;
8538;SDS011;4307;53.868;11.680;2023-04-25T14:41:52;3.67;;;1.53;;
8538;SDS011;4307;53.868;11.680;2023-04-25T14:44:19;4.20;;;1.80;;
8538;SDS011;4307;53.868;11.680;2023-04-25T14:46:46;3.47;;;1.10;;
8538;SDS011;4307;53.868;11.680;2023-04-25T14:49:12;6.47;;;1.87;;
8538;SDS011;4307;53.868;11.680;2023-04-25T14:51:39;6.27;;;1.90;;
8538;SDS011;4307;53.868;11.680;2023-04-25T14:54:07;5.23;;;1.87;;
8538;SDS011;4307;53.868;11.680;2023-04-25T14:56:34;3.80;;;1.30;;
8538;SDS011;4307;53.868;11.680;2023-04-25T14:59:01;3.67;;;2.00;;
8538;SDS011;4307;53.868;11.680;2023-04-25T15:01:27;4.47;;;2.00;;